Galileo — SX2040 — position and weather

sailwx.info

Track history (hours):
 
Tides and Currents Weather Stations Pressure Air Temp Water Temp Dewpoint Dewpoint Depression Visibility Wind Speed Wind Dir Waves Ship Positions

Galileo

Last reported at 2014-Jul-23 21:32 UTC. Time now 2014-Jul-23 21:45 UTC.
Position N 37°28' E 025°20'.

Length 40 m; draft 3 m.

Type: Passenger vessel. MMSI: 239299000.

Date/timePositionNaut miles runAvg speedWind from/ knotsBaromVisibWave heightAir tempDewpointWater temp
2014-Jul-23 21:32N 37°28' E 025°20'0 0.0
2014-Jul-23 20:33N 37°28' E 025°20'0 0.0
2014-Jul-23 19:32N 37°28' E 025°20'0 0.0
2014-Jul-23 18:31N 37°28' E 025°20'0 0.0
2014-Jul-23 17:31N 37°28' E 025°20'0 0.0
2014-Jul-23 16:32N 37°28' E 025°20'0 0.0
2014-Jul-23 15:33N 37°28' E 025°20'0 0.0
2014-Jul-23 14:33N 37°28' E 025°20'0 0.0
2014-Jul-23 13:32N 37°28' E 025°20'0 0.0
2014-Jul-23 12:33N 37°28' E 025°20'0 0.0
2014-Jul-23 11:32N 37°28' E 025°20'0 0.0
2014-Jul-23 10:32N 37°28' E 025°20'0 0.0
2014-Jul-23 09:33N 37°28' E 025°20'0 0.0
2014-Jul-23 08:32N 37°28' E 025°20'0 0.0
2014-Jul-23 07:33N 37°28' E 025°20'0 0.0
2014-Jul-23 06:33N 37°28' E 025°20'0 0.0
2014-Jul-23 05:33N 37°28' E 025°20'4 4.0
2014-Jul-23 04:33N 37°24' E 025°17'10 9.7
2014-Jul-23 03:33N 37°15' E 025°13'11 9.0
2014-Jul-23 02:22N 37°05' E 025°08'0 0.5
2014-Jul-23 01:30N 37°05' E 025°09'0 0.0
2014-Jul-22 22:10N 37°05' E 025°09'0 0.0
2014-Jul-22 21:32N 37°05' E 025°09'0 0.0
2014-Jul-22 20:30N 37°05' E 025°09'0 0.0
2014-Jul-22 19:33N 37°05' E 025°09'0 0.0
2014-Jul-22 18:32N 37°05' E 025°09'0 0.0
2014-Jul-22 17:33N 37°05' E 025°09'0 0.0
2014-Jul-22 16:33N 37°05' E 025°09'0 0.0
2014-Jul-22 15:33N 37°05' E 025°09'0 0.0
2014-Jul-22 14:32N 37°05' E 025°09'0 0.0
2014-Jul-22 12:32N 37°05' E 025°09'0 0.0
2014-Jul-22 11:20N 37°05' E 025°09'0 0.0
2014-Jul-22 10:32N 37°05' E 025°09'0 0.0
2014-Jul-22 09:31N 37°05' E 025°09'1 0.7
2014-Jul-22 08:32N 37°06' E 025°08'0 0.0
2014-Jul-22 07:30N 37°06' E 025°08'9 9.3
2014-Jul-22 06:33N 37°01' E 024°59'8 7.4
2014-Jul-22 05:32N 36°53' E 025°01'10 9.8
2014-Jul-22 04:32N 36°46' E 025°09'9 9.5
2014-Jul-22 03:33N 36°38' E 025°15'10 9.7
2014-Jul-22 02:33N 36°29' E 025°21'2 0.1
2014-Jul-21 04:33N 36°28' E 025°21'9 9.0
2014-Jul-21 03:33N 36°33' E 025°13'9 9.1
2014-Jul-21 02:33N 36°34' E 025°01'29 4.9
2014-Jul-20 20:29N 36°43' E 024°27'0 0.0
2014-Jul-20 19:03N 36°43' E 024°27'0 0.0
2014-Jul-20 18:25N 36°43' E 024°27'0 0.0
2014-Jul-20 17:27N 36°43' E 024°27'0 0.0
2014-Jul-20 16:33N 36°43' E 024°27'0 0.0
2014-Jul-20 15:28N 36°43' E 024°27'0 0.0
2014-Jul-20 14:29N 36°43' E 024°27'0 0.0
2014-Jul-20 13:27N 36°43' E 024°27'3 3.1
2014-Jul-20 12:27N 36°45' E 024°24'8 6.4
2014-Jul-20 11:15N 36°39' E 024°19'1 1.8
2014-Jul-20 10:32N 36°39' E 024°20'0 0.0
2014-Jul-20 09:33N 36°39' E 024°20'0 0.0
2014-Jul-20 08:31N 36°39' E 024°20'0 0.0
2014-Jul-20 07:11N 36°39' E 024°20'0 0.2
2014-Jul-20 06:29N 36°39' E 024°20'78 4.6
2014-Jul-19 13:32N 37°48' E 023°36'8 8.2
2014-Jul-19 12:33N 37°56' E 023°39'0 0.0
2014-Jul-19 11:33N 37°56' E 023°39'0 0.0
2014-Jul-19 10:33N 37°56' E 023°39'0 0.0
2014-Jul-19 09:33N 37°56' E 023°39'0 0.0
2014-Jul-19 08:33N 37°56' E 023°39'0 0.0
2014-Jul-19 07:33N 37°56' E 023°39'0 0.0
2014-Jul-19 06:33N 37°56' E 023°39'0 0.0
2014-Jul-19 05:33N 37°56' E 023°39'0 0.0
2014-Jul-19 04:33N 37°56' E 023°39'0 0.0
2014-Jul-19 03:33N 37°56' E 023°39'0 0.0
2014-Jul-19 02:33N 37°56' E 023°39'0 0.0
2014-Jul-19 01:33N 37°56' E 023°39'0 0.0
2014-Jul-19 00:33N 37°56' E 023°39'0 0.0
2014-Jul-18 23:33N 37°56' E 023°39'0 0.0
2014-Jul-18 22:33N 37°56' E 023°39'0 0.0
2014-Jul-18 21:33N 37°56' E 023°39'0 0.0
2014-Jul-18 20:33N 37°56' E 023°39'0 0.0
2014-Jul-18 19:33N 37°56' E 023°39'0 0.0
2014-Jul-18 18:33N 37°56' E 023°39'0 0.0
2014-Jul-18 17:33N 37°56' E 023°39'0 0.0
2014-Jul-18 16:33N 37°56' E 023°39'0 0.0
2014-Jul-18 15:33N 37°56' E 023°39'8 8.1
2014-Jul-18 14:33N 37°49' E 023°43'40 4.9
2014-Jul-18 06:22N 37°30' E 024°27'17 9.3
2014-Jul-18 04:32N 37°31' E 024°49'8 7.8
2014-Jul-18 03:33N 37°28' E 024°58'1 1.2
2014-Jul-18 02:32N 37°27' E 024°57'0 0.0
2014-Jul-18 01:34N 37°27' E 024°57'0 0.0
2014-Jul-18 00:33N 37°27' E 024°57'0 0.0
2014-Jul-17 23:32N 37°27' E 024°57'0 0.0
2014-Jul-17 22:32N 37°27' E 024°57'0 0.0
2014-Jul-17 21:32N 37°27' E 024°57'0 0.0
2014-Jul-17 20:32N 37°27' E 024°57'0 0.0
2014-Jul-17 19:33N 37°27' E 024°57'0 0.0
2014-Jul-17 18:33N 37°27' E 024°57'0 0.0
2014-Jul-17 17:32N 37°27' E 024°57'0 0.0
2014-Jul-17 16:32N 37°27' E 024°57'0 0.0
2014-Jul-17 15:33N 37°27' E 024°57'0 0.0
2014-Jul-17 14:32N 37°27' E 024°57'0 0.0
2014-Jul-17 13:33N 37°27' E 024°57'0 0.0
2014-Jul-17 12:33N 37°27' E 024°57'0 0.0
2014-Jul-17 11:33N 37°27' E 024°57'0 0.0
2014-Jul-17 10:31N 37°27' E 024°57'0 0.0
2014-Jul-17 09:33N 37°27' E 024°57'2 1.9
2014-Jul-17 08:33N 37°25' E 024°59'0 0.0
2014-Jul-17 07:32N 37°25' E 024°59'0 0.1
2014-Jul-17 06:33N 37°25' E 024°59'13 9.7
2014-Jul-17 05:15N 37°27' E 025°15'4 5.8
2014-Jul-17 04:33N 37°28' E 025°20'0 0.0
2014-Jul-17 03:33N 37°28' E 025°20'0 0.0
2014-Jul-17 02:32N 37°28' E 025°20'0 0.0
2014-Jul-17 01:33N 37°28' E 025°20'0 0.0
2014-Jul-17 00:32N 37°28' E 025°20'0 0.0
2014-Jul-16 23:34N 37°28' E 025°20'0 0.0
2014-Jul-16 22:33N 37°28' E 025°20'0 0.0
2014-Jul-16 21:33N 37°28' E 025°20'0 0.0
2014-Jul-16 20:32N 37°28' E 025°20'0 0.0
2014-Jul-16 19:33N 37°28' E 025°20'0 0.0
2014-Jul-16 18:33N 37°28' E 025°20'0 0.0
2014-Jul-16 17:33N 37°28' E 025°20'0 0.0
2014-Jul-16 16:33N 37°28' E 025°20'0 0.0
2014-Jul-16 15:32N 37°28' E 025°20'0 0.0
2014-Jul-16 14:33N 37°28' E 025°20'0 0.0
2014-Jul-16 13:32N 37°28' E 025°20'0 0.0
2014-Jul-16 12:33N 37°28' E 025°20'0 0.0
2014-Jul-16 11:33N 37°28' E 025°20'0 0.0
2014-Jul-16 10:32N 37°28' E 025°20'0 0.0
2014-Jul-16 09:29N 37°28' E 025°20'0 0.0
2014-Jul-16 08:32N 37°28' E 025°20'0 0.0
2014-Jul-16 07:30N 37°28' E 025°20'0 0.0
2014-Jul-16 06:30N 37°28' E 025°20'0 0.0
2014-Jul-16 05:33N 37°28' E 025°20'6 5.6
2014-Jul-16 04:33N 37°23' E 025°17'9 9.0
2014-Jul-16 03:33N 37°14' E 025°12'9 7.8
2014-Jul-16 02:20N 37°05' E 025°09'0 0.0
2014-Jul-15 15:31N 37°05' E 025°09'0 0.0
2014-Jul-15 14:33N 37°05' E 025°09'0 0.0
2014-Jul-15 13:19N 37°05' E 025°09'0 0.0
2014-Jul-15 09:25N 37°05' E 025°09'1 0.6
2014-Jul-15 08:17N 37°06' E 025°08'0 0.6
2014-Jul-15 07:33N 37°05' E 025°08'9 9.1
2014-Jul-15 06:33N 37°00' E 024°59'8 7.5
2014-Jul-15 05:33N 36°53' E 025°01'10 9.5
2014-Jul-15 04:33N 36°46' E 025°09'9 9.1
2014-Jul-15 03:33N 36°38' E 025°15'10 9.6
2014-Jul-15 02:33N 36°30' E 025°21'6 0.3
2014-Jul-14 05:24N 36°25' E 025°26'8 9.0
2014-Jul-14 04:33N 36°30' E 025°19'9 9.0
2014-Jul-14 03:33N 36°35' E 025°09'9 9.1
2014-Jul-14 02:33N 36°37' E 024°58'1 0.9
2014-Jul-14 01:33N 36°37' E 024°57'0 0.0
2014-Jul-14 00:33N 36°37' E 024°57'0 0.0
2014-Jul-13 23:33N 36°37' E 024°57'0 0.0
2014-Jul-13 22:33N 36°37' E 024°57'0 0.0
2014-Jul-13 21:33N 36°37' E 024°57'  
Track history (hours):
 
Tides and Currents Weather Stations Pressure Air Temp Water Temp Dewpoint Dewpoint Depression Visibility Wind Speed Wind Dir Waves Ship Positions

Galileo

Last reported at 2014-Jul-23 21:32 UTC. Time now 2014-Jul-23 21:45 UTC.
Position N 37°28' E 025°20'.

Length 40 m; draft 3 m.

Type: Passenger vessel. MMSI: 239299000.

Date/timePositionNaut miles runAvg speedWind from/ knotsBaromVisibWave heightAir tempDewpointWater temp
2014-Jul-23 21:32N 37°28' E 025°20'0 0.0
2014-Jul-23 20:33N 37°28' E 025°20'0 0.0
2014-Jul-23 19:32N 37°28' E 025°20'0 0.0
2014-Jul-23 18:31N 37°28' E 025°20'0 0.0
2014-Jul-23 17:31N 37°28' E 025°20'0 0.0
2014-Jul-23 16:32N 37°28' E 025°20'0 0.0
2014-Jul-23 15:33N 37°28' E 025°20'0 0.0
2014-Jul-23 14:33N 37°28' E 025°20'0 0.0
2014-Jul-23 13:32N 37°28' E 025°20'0 0.0
2014-Jul-23 12:33N 37°28' E 025°20'0 0.0
2014-Jul-23 11:32N 37°28' E 025°20'0 0.0
2014-Jul-23 10:32N 37°28' E 025°20'0 0.0
2014-Jul-23 09:33N 37°28' E 025°20'0 0.0
2014-Jul-23 08:32N 37°28' E 025°20'0 0.0
2014-Jul-23 07:33N 37°28' E 025°20'0 0.0
2014-Jul-23 06:33N 37°28' E 025°20'0 0.0
2014-Jul-23 05:33N 37°28' E 025°20'4 4.0
2014-Jul-23 04:33N 37°24' E 025°17'10 9.7
2014-Jul-23 03:33N 37°15' E 025°13'11 9.0
2014-Jul-23 02:22N 37°05' E 025°08'0 0.5
2014-Jul-23 01:30N 37°05' E 025°09'0 0.0
2014-Jul-22 22:10N 37°05' E 025°09'0 0.0
2014-Jul-22 21:32N 37°05' E 025°09'0 0.0
2014-Jul-22 20:30N 37°05' E 025°09'0 0.0
2014-Jul-22 19:33N 37°05' E 025°09'0 0.0
2014-Jul-22 18:32N 37°05' E 025°09'0 0.0
2014-Jul-22 17:33N 37°05' E 025°09'0 0.0
2014-Jul-22 16:33N 37°05' E 025°09'0 0.0
2014-Jul-22 15:33N 37°05' E 025°09'0 0.0
2014-Jul-22 14:32N 37°05' E 025°09'0 0.0
2014-Jul-22 12:32N 37°05' E 025°09'0 0.0
2014-Jul-22 11:20N 37°05' E 025°09'0 0.0
2014-Jul-22 10:32N 37°05' E 025°09'0 0.0
2014-Jul-22 09:31N 37°05' E 025°09'1 0.7
2014-Jul-22 08:32N 37°06' E 025°08'0 0.0
2014-Jul-22 07:30N 37°06' E 025°08'9 9.3
2014-Jul-22 06:33N 37°01' E 024°59'8 7.4
2014-Jul-22 05:32N 36°53' E 025°01'10 9.8
2014-Jul-22 04:32N 36°46' E 025°09'9 9.5
2014-Jul-22 03:33N 36°38' E 025°15'10 9.7
2014-Jul-22 02:33N 36°29' E 025°21'2 0.1
2014-Jul-21 04:33N 36°28' E 025°21'9 9.0
2014-Jul-21 03:33N 36°33' E 025°13'9 9.1
2014-Jul-21 02:33N 36°34' E 025°01'29 4.9
2014-Jul-20 20:29N 36°43' E 024°27'0 0.0
2014-Jul-20 19:03N 36°43' E 024°27'0 0.0
2014-Jul-20 18:25N 36°43' E 024°27'0 0.0
2014-Jul-20 17:27N 36°43' E 024°27'0 0.0
2014-Jul-20 16:33N 36°43' E 024°27'0 0.0
2014-Jul-20 15:28N 36°43' E 024°27'0 0.0
2014-Jul-20 14:29N 36°43' E 024°27'0 0.0
2014-Jul-20 13:27N 36°43' E 024°27'3 3.1
2014-Jul-20 12:27N 36°45' E 024°24'8 6.4
2014-Jul-20 11:15N 36°39' E 024°19'1 1.8
2014-Jul-20 10:32N 36°39' E 024°20'0 0.0
2014-Jul-20 09:33N 36°39' E 024°20'0 0.0
2014-Jul-20 08:31N 36°39' E 024°20'0 0.0
2014-Jul-20 07:11N 36°39' E 024°20'0 0.2
2014-Jul-20 06:29N 36°39' E 024°20'78 4.6
2014-Jul-19 13:32N 37°48' E 023°36'8 8.2
2014-Jul-19 12:33N 37°56' E 023°39'0 0.0
2014-Jul-19 11:33N 37°56' E 023°39'0 0.0
2014-Jul-19 10:33N 37°56' E 023°39'0 0.0
2014-Jul-19 09:33N 37°56' E 023°39'0 0.0
2014-Jul-19 08:33N 37°56' E 023°39'0 0.0
2014-Jul-19 07:33N 37°56' E 023°39'0 0.0
2014-Jul-19 06:33N 37°56' E 023°39'0 0.0
2014-Jul-19 05:33N 37°56' E 023°39'0 0.0
2014-Jul-19 04:33N 37°56' E 023°39'0 0.0
2014-Jul-19 03:33N 37°56' E 023°39'0 0.0
2014-Jul-19 02:33N 37°56' E 023°39'0 0.0
2014-Jul-19 01:33N 37°56' E 023°39'0 0.0
2014-Jul-19 00:33N 37°56' E 023°39'0 0.0
2014-Jul-18 23:33N 37°56' E 023°39'0 0.0
2014-Jul-18 22:33N 37°56' E 023°39'0 0.0
2014-Jul-18 21:33N 37°56' E 023°39'0 0.0
2014-Jul-18 20:33N 37°56' E 023°39'0 0.0
2014-Jul-18 19:33N 37°56' E 023°39'0 0.0
2014-Jul-18 18:33N 37°56' E 023°39'0 0.0
2014-Jul-18 17:33N 37°56' E 023°39'0 0.0
2014-Jul-18 16:33N 37°56' E 023°39'0 0.0
2014-Jul-18 15:33N 37°56' E 023°39'8 8.1
2014-Jul-18 14:33N 37°49' E 023°43'40 4.9
2014-Jul-18 06:22N 37°30' E 024°27'17 9.3
2014-Jul-18 04:32N 37°31' E 024°49'8 7.8
2014-Jul-18 03:33N 37°28' E 024°58'1 1.2
2014-Jul-18 02:32N 37°27' E 024°57'0 0.0
2014-Jul-18 01:34N 37°27' E 024°57'0 0.0
2014-Jul-18 00:33N 37°27' E 024°57'0 0.0
2014-Jul-17 23:32N 37°27' E 024°57'0 0.0
2014-Jul-17 22:32N 37°27' E 024°57'0 0.0
2014-Jul-17 21:32N 37°27' E 024°57'0 0.0
2014-Jul-17 20:32N 37°27' E 024°57'0 0.0
2014-Jul-17 19:33N 37°27' E 024°57'0 0.0
2014-Jul-17 18:33N 37°27' E 024°57'0 0.0
2014-Jul-17 17:32N 37°27' E 024°57'0 0.0
2014-Jul-17 16:32N 37°27' E 024°57'0 0.0
2014-Jul-17 15:33N 37°27' E 024°57'0 0.0
2014-Jul-17 14:32N 37°27' E 024°57'0 0.0
2014-Jul-17 13:33N 37°27' E 024°57'0 0.0
2014-Jul-17 12:33N 37°27' E 024°57'0 0.0
2014-Jul-17 11:33N 37°27' E 024°57'0 0.0
2014-Jul-17 10:31N 37°27' E 024°57'0 0.0
2014-Jul-17 09:33N 37°27' E 024°57'2 1.9
2014-Jul-17 08:33N 37°25' E 024°59'0 0.0
2014-Jul-17 07:32N 37°25' E 024°59'0 0.1
2014-Jul-17 06:33N 37°25' E 024°59'13 9.7
2014-Jul-17 05:15N 37°27' E 025°15'4 5.8
2014-Jul-17 04:33N 37°28' E 025°20'0 0.0
2014-Jul-17 03:33N 37°28' E 025°20'0 0.0
2014-Jul-17 02:32N 37°28' E 025°20'0 0.0
2014-Jul-17 01:33N 37°28' E 025°20'0 0.0
2014-Jul-17 00:32N 37°28' E 025°20'0 0.0
2014-Jul-16 23:34N 37°28' E 025°20'0 0.0
2014-Jul-16 22:33N 37°28' E 025°20'0 0.0
2014-Jul-16 21:33N 37°28' E 025°20'0 0.0
2014-Jul-16 20:32N 37°28' E 025°20'0 0.0
2014-Jul-16 19:33N 37°28' E 025°20'0 0.0
2014-Jul-16 18:33N 37°28' E 025°20'0 0.0
2014-Jul-16 17:33N 37°28' E 025°20'0 0.0
2014-Jul-16 16:33N 37°28' E 025°20'0 0.0
2014-Jul-16 15:32N 37°28' E 025°20'0 0.0
2014-Jul-16 14:33N 37°28' E 025°20'0 0.0
2014-Jul-16 13:32N 37°28' E 025°20'0 0.0
2014-Jul-16 12:33N 37°28' E 025°20'0 0.0
2014-Jul-16 11:33N 37°28' E 025°20'0 0.0
2014-Jul-16 10:32N 37°28' E 025°20'0 0.0
2014-Jul-16 09:29N 37°28' E 025°20'0 0.0
2014-Jul-16 08:32N 37°28' E 025°20'0 0.0
2014-Jul-16 07:30N 37°28' E 025°20'0 0.0
2014-Jul-16 06:30N 37°28' E 025°20'0 0.0
2014-Jul-16 05:33N 37°28' E 025°20'6 5.6
2014-Jul-16 04:33N 37°23' E 025°17'9 9.0
2014-Jul-16 03:33N 37°14' E 025°12'9 7.8
2014-Jul-16 02:20N 37°05' E 025°09'0 0.0
2014-Jul-15 15:31N 37°05' E 025°09'0 0.0
2014-Jul-15 14:33N 37°05' E 025°09'0 0.0
2014-Jul-15 13:19N 37°05' E 025°09'0 0.0
2014-Jul-15 09:25N 37°05' E 025°09'1 0.6
2014-Jul-15 08:17N 37°06' E 025°08'0 0.6
2014-Jul-15 07:33N 37°05' E 025°08'9 9.1
2014-Jul-15 06:33N 37°00' E 024°59'8 7.5
2014-Jul-15 05:33N 36°53' E 025°01'10 9.5
2014-Jul-15 04:33N 36°46' E 025°09'9 9.1
2014-Jul-15 03:33N 36°38' E 025°15'10 9.6
2014-Jul-15 02:33N 36°30' E 025°21'6 0.3
2014-Jul-14 05:24N 36°25' E 025°26'8 9.0
2014-Jul-14 04:33N 36°30' E 025°19'9 9.0
2014-Jul-14 03:33N 36°35' E 025°09'9 9.1
2014-Jul-14 02:33N 36°37' E 024°58'1 0.9
2014-Jul-14 01:33N 36°37' E 024°57'0 0.0
2014-Jul-14 00:33N 36°37' E 024°57'0 0.0
2014-Jul-13 23:33N 36°37' E 024°57'0 0.0
2014-Jul-13 22:33N 36°37' E 024°57'0 0.0
2014-Jul-13 21:33N 36°37' E 024°57'  

Dump ship's entire track history